Time;durP1;ratioP1;P1;durP2;ratioP2;P2;SDS_P1;SDS_P2;PMS_P1;PMS_P2;Temp;Humidity;BMP_temperature;BMP_pressure;BME280_temperature;BME280_humidity;BME280_pressure;Samples;Min_cycle;Max_cycle;Signal;HPM_P1;HPM_P2
2023/09/05 00:00:16;;;;;;;3.00;2.20;;;;;;;;;;480119;28;1254;-70
2023/09/05 00:00:32;;;;;;;4.22;2.38;;;;;;;;;;481212;28;897;-71
2023/09/05 00:00:47;;;;;;;3.80;2.30;;;;;;;;;;481453;28;1264;-70
2023/09/05 00:01:03;;;;;;;3.92;2.45;;;;;;;;;;480855;28;1045;-71
2023/09/05 00:01:18;;;;;;;4.35;2.70;;;;;;;;;;479731;28;1070;-71
2023/09/05 00:01:35;;;;;;;4.47;2.70;;;;;;;;;;481324;28;1383;-71
2023/09/05 00:01:51;;;;;;;5.20;2.65;;;;;;;;;;483003;28;951;-71
2023/09/05 00:02:07;;;;;;;4.60;2.55;;;;;;;;;;483440;28;1545;-71
2023/09/05 00:02:24;;;;;;;3.42;2.38;;;;;;;;;;490852;28;1170;-70
2023/09/05 00:02:44;;;;;;;3.65;2.50;;;;;;;;;;488069;28;1149;-71
2023/09/05 00:03:00;;;;;;;4.05;2.65;;;;;;;;;;486664;28;1140;-71
2023/09/05 00:03:18;;;;;;;3.83;2.47;;;;;;;;;;486589;28;1117;-71
2023/09/05 00:03:33;;;;;;;3.55;2.38;;;;;;;;;;488143;28;1062;-70
2023/09/05 00:03:50;;;;;;;3.15;2.25;;;;;;;;;;486303;28;1201;-70
2023/09/05 00:04:05;;;;;;;3.40;2.20;;;;;;;;;;481988;28;1011;-70
2023/09/05 00:04:21;;;;;;;3.88;2.30;;;;;;;;;;482098;29;1117;-71
2023/09/05 00:04:38;;;;;;;4.07;2.35;;;;;;;;;;477627;29;1130;-71
2023/09/05 00:04:57;;;;;;;4.00;2.30;;;;;;;;;;479402;29;976;-71
2023/09/05 00:05:12;;;;;;;3.50;2.20;;;;;;;;;;489156;28;1281;-71
2023/09/05 00:05:28;;;;;;;3.58;2.20;;;;;;;;;;486680;28;1163;-70
2023/09/05 00:05:46;;;;;;;3.10;2.40;;;;;;;;;;486627;28;968;-71
2023/09/05 00:06:10;;;;;;;3.20;2.40;;;;;;;;;;483318;28;1569;-71
2023/09/05 00:06:25;;;;;;;2.83;2.30;;;;;;;;;;482265;28;1145;-71
2023/09/05 00:06:41;;;;;;;3.08;2.25;;;;;;;;;;482530;28;1145;-71
2023/09/05 00:06:56;;;;;;;3.73;2.37;;;;;;;;;;485021;28;975;-71
2023/09/05 00:07:12;;;;;;;3.88;2.47;;;;;;;;;;487002;28;1150;-71
2023/09/05 00:07:27;;;;;;;5.37;2.60;;;;;;;;;;491789;28;1047;-71
2023/09/05 00:07:43;;;;;;;5.32;2.60;;;;;;;;;;485480;28;956;-70
2023/09/05 00:07:58;;;;;;;4.03;2.40;;;;;;;;;;479910;28;1139;-71
2023/09/05 00:08:14;;;;;;;4.10;2.50;;;;;;;;;;489725;28;1223;-71
2023/09/05 00:08:29;;;;;;;3.67;2.53;;;;;;;;;;488433;28;1018;-70
2023/09/05 00:08:45;;;;;;;3.20;2.50;;;;;;;;;;482853;28;1255;-70
2023/09/05 00:09:00;;;;;;;3.30;2.50;;;;;;;;;;484160;28;908;-71
2023/09/05 00:09:18;;;;;;;3.08;2.53;;;;;;;;;;480851;28;1007;-71
2023/09/05 00:09:33;;;;;;;3.58;2.42;;;;;;;;;;478147;28;1131;-71
2023/09/05 00:09:49;;;;;;;3.97;2.40;;;;;;;;;;478199;28;1123;-71
2023/09/05 00:10:12;;;;;;;3.88;2.47;;;;;;;;;;478848;28;994;-71
2023/09/05 00:10:28;;;;;;;4.85;2.40;;;;;;;;;;477028;29;1074;-71
2023/09/05 00:10:44;;;;;;;4.50;2.33;;;;;;;;;;483868;28;1179;-71
2023/09/05 00:11:01;;;;;;;2.90;2.13;;;;;;;;;;493099;28;1092;-71
2023/09/05 00:11:16;;;;;;;4.57;2.38;;;;;;;;;;492851;28;1950;-71
2023/09/05 00:11:33;;;;;;;4.80;2.58;;;;;;;;;;491446;28;979;-71
2023/09/05 00:11:48;;;;;;;4.38;2.58;;;;;;;;;;491480;28;1071;-71
2023/09/05 00:12:04;;;;;;;4.47;2.60;;;;;;;;;;490253;28;1004;-71
2023/09/05 00:12:20;;;;;;;4.07;2.45;;;;;;;;;;490348;28;1352;-71
2023/09/05 00:12:35;;;;;;;4.00;2.50;;;;;;;;;;484884;28;1131;-71
2023/09/05 00:12:51;;;;;;;4.18;2.53;;;;;;;;;;486194;28;1331;-71
2023/09/05 00:13:11;;;;;;;3.23;2.50;;;;;;;;;;488293;28;1054;-71
2023/09/05 00:13:26;;;;;;;3.58;2.50;;;;;;;;;;485571;28;1259;-71
2023/09/05 00:13:42;;;;;;;3.67;2.50;;;;;;;;;;488598;28;1144;-71
2023/09/05 00:14:00;;;;;;;3.65;2.40;;;;;;;;;;487221;28;1182;-71
2023/09/05 00:14:18;;;;;;;3.65;2.40;;;;;;;;;;488146;28;1230;-71
2023/09/05 00:14:33;;;;;;;3.97;2.40;;;;;;;;;;486899;28;974;-71
2023/09/05 00:14:49;;;;;;;4.43;2.30;;;;;;;;;;489778;28;1140;-71
2023/09/05 00:15:05;;;;;;;4.00;2.40;;;;;;;;;;490459;28;1093;-72
2023/09/05 00:15:20;;;;;;;5.18;2.58;;;;;;;;;;485043;28;1222;-71
2023/09/05 00:15:35;;;;;;;5.83;2.60;;;;;;;;;;489033;28;1128;-71
2023/09/05 00:15:51;;;;;;;4.80;2.60;;;;;;;;;;484637;28;1070;-70
2023/09/05 00:16:07;;;;;;;3.87;2.70;;;;;;;;;;485730;28;1212;-71
2023/09/05 00:16:22;;;;;;;4.50;2.70;;;;;;;;;;487286;28;1924;-71
2023/09/05 00:16:38;;;;;;;4.50;2.55;;;;;;;;;;487169;28;1071;-71
2023/09/05 00:16:53;;;;;;;2.93;2.50;;;;;;;;;;481248;28;1157;-71
2023/09/05 00:17:09;;;;;;;2.80;2.30;;;;;;;;;;478758;28;1288;-71
2023/09/05 00:17:25;;;;;;;2.67;2.22;;;;;;;;;;480450;28;1050;-71
2023/09/05 00:17:41;;;;;;;3.03;2.42;;;;;;;;;;479689;28;1097;-70
2023/09/05 00:17:57;;;;;;;4.88;2.53;;;;;;;;;;479485;28;1256;-71
2023/09/05 00:18:12;;;;;;;6.20;2.65;;;;;;;;;;480051;28;1394;-71
2023/09/05 00:18:27;;;;;;;5.70;2.60;;;;;;;;;;481183;28;1192;-71
2023/09/05 00:18:43;;;;;;;4.22;2.42;;;;;;;;;;479780;28;1290;-71
2023/09/05 00:18:59;;;;;;;3.00;2.30;;;;;;;;;;472289;29;1058;-71
2023/09/05 00:19:15;;;;;;;2.80;2.20;;;;;;;;;;473458;28;1390;-71
2023/09/05 00:19:30;;;;;;;3.70;2.35;;;;;;;;;;473044;29;1169;-71
2023/09/05 00:19:46;;;;;;;4.70;2.60;;;;;;;;;;472596;29;944;-71
2023/09/05 00:20:01;;;;;;;5.25;2.60;;;;;;;;;;471230;28;1233;-71
2023/09/05 00:20:17;;;;;;;5.07;2.70;;;;;;;;;;472835;28;1062;-71
2023/09/05 00:20:32;;;;;;;4.68;2.70;;;;;;;;;;480763;28;1311;-71
2023/09/05 00:20:54;;;;;;;4.75;2.60;;;;;;;;;;482007;28;1241;-71
2023/09/05 00:21:10;;;;;;;3.70;2.70;;;;;;;;;;480802;28;1295;-72
2023/09/05 00:21:26;;;;;;;4.10;2.80;;;;;;;;;;472368;28;1292;-71
2023/09/05 00:21:41;;;;;;;4.55;2.60;;;;;;;;;;472094;29;1195;-71
2023/09/05 00:21:56;;;;;;;4.87;2.77;;;;;;;;;;471151;28;1102;-71
2023/09/05 00:22:12;;;;;;;5.03;3.00;;;;;;;;;;471357;28;1307;-71
2023/09/05 00:22:27;;;;;;;4.93;3.08;;;;;;;;;;469957;29;1241;-70
2023/09/05 00:22:43;;;;;;;6.93;3.17;;;;;;;;;;470187;29;1162;-71
2023/09/05 00:22:58;;;;;;;6.55;2.90;;;;;;;;;;470041;29;1286;-71
2023/09/05 00:23:16;;;;;;;4.37;2.70;;;;;;;;;;470882;28;1337;-71
2023/09/05 00:23:31;;;;;;;5.22;2.80;;;;;;;;;;480202;28;1160;-71
2023/09/05 00:23:47;;;;;;;4.60;2.87;;;;;;;;;;481270;28;1026;-73
2023/09/05 00:24:31;;;;;;;3.55;2.80;;;;;;;;;;480853;28;1046;-71
2023/09/05 00:24:49;;;;;;;4.25;2.80;;;;;;;;;;484079;28;1309;-71
2023/09/05 00:25:04;;;;;;;5.03;2.90;;;;;;;;;;482699;28;1559;-71
2023/09/05 00:25:20;;;;;;;5.73;2.90;;;;;;;;;;476414;29;1025;-71
2023/09/05 00:25:35;;;;;;;4.47;2.90;;;;;;;;;;475458;28;1340;-71
2023/09/05 00:25:51;;;;;;;3.40;2.77;;;;;;;;;;476844;29;1060;-71
2023/09/05 00:26:06;;;;;;;3.40;2.65;;;;;;;;;;475433;29;1037;-70
2023/09/05 00:26:22;;;;;;;3.92;2.80;;;;;;;;;;474828;29;998;-71
2023/09/05 00:26:37;;;;;;;4.47;3.00;;;;;;;;;;475723;28;1145;-71
2023/09/05 00:26:55;;;;;;;5.00;3.00;;;;;;;;;;474652;28;1172;-71
2023/09/05 00:27:10;;;;;;;4.82;3.05;;;;;;;;;;475799;29;1496;-71
2023/09/05 00:27:26;;;;;;;4.33;3.07;;;;;;;;;;474535;29;1030;-71
2023/09/05 00:27:43;;;;;;;5.13;3.10;;;;;;;;;;475464;28;1149;-71
2023/09/05 00:28:00;;;;;;;4.80;3.05;;;;;;;;;;475887;28;1050;-71
2023/09/05 00:28:18;;;;;;;5.45;2.80;;;;;;;;;;475812;28;1250;-71
2023/09/05 00:28:34;;;;;;;4.38;2.70;;;;;;;;;;474609;29;1076;-71
2023/09/05 00:28:50;;;;;;;3.33;2.70;;;;;;;;;;483734;28;1123;-71
2023/09/05 00:29:05;;;;;;;3.42;2.70;;;;;;;;;;483521;28;1086;-71
2023/09/05 00:29:23;;;;;;;3.27;2.70;;;;;;;;;;482575;28;1154;-71
2023/09/05 00:29:39;;;;;;;2.75;2.47;;;;;;;;;;482623;28;1086;-71
2023/09/05 00:29:56;;;;;;;3.05;2.40;;;;;;;;;;483656;28;966;-71
2023/09/05 00:30:14;;;;;;;4.60;2.80;;;;;;;;;;481804;28;986;-70
2023/09/05 00:30:34;;;;;;;4.38;2.90;;;;;;;;;;481960;28;1120;-71
2023/09/05 00:30:50;;;;;;;3.42;2.60;;;;;;;;;;482329;28;1117;-71
2023/09/05 00:31:06;;;;;;;2.90;2.58;;;;;;;;;;483489;28;1069;-71
2023/09/05 00:31:21;;;;;;;3.60;2.80;;;;;;;;;;483267;28;2585;-71
2023/09/05 00:31:40;;;;;;;5.00;2.92;;;;;;;;;;482902;28;1085;-71
2023/09/05 00:31:59;;;;;;;5.80;2.70;;;;;;;;;;483231;28;1078;-71
2023/09/05 00:32:18;;;;;;;5.68;2.70;;;;;;;;;;481330;28;1840;-71
2023/09/05 00:32:33;;;;;;;4.38;2.75;;;;;;;;;;482885;28;1047;-71
2023/09/05 00:32:48;;;;;;;5.57;2.73;;;;;;;;;;482529;28;1071;-71
2023/09/05 00:33:04;;;;;;;5.43;2.70;;;;;;;;;;482745;28;1172;-71
2023/09/05 00:33:19;;;;;;;4.50;2.70;;;;;;;;;;483057;28;1309;-70
2023/09/05 00:33:35;;;;;;;4.13;2.60;;;;;;;;;;483652;28;1032;-71
2023/09/05 00:33:50;;;;;;;3.83;2.67;;;;;;;;;;484024;28;1248;-71
2023/09/05 00:34:06;;;;;;;4.10;2.70;;;;;;;;;;483500;28;1082;-72
2023/09/05 00:34:21;;;;;;;5.18;2.83;;;;;;;;;;483858;28;1269;-71
2023/09/05 00:34:38;;;;;;;5.40;2.90;;;;;;;;;;483244;28;977;-71
2023/09/05 00:34:53;;;;;;;4.63;2.80;;;;;;;;;;482908;28;1092;-71
2023/09/05 00:35:09;;;;;;;4.10;2.72;;;;;;;;;;482681;28;1138;-71
2023/09/05 00:35:24;;;;;;;6.18;2.90;;;;;;;;;;483610;28;1099;-71
2023/09/05 00:35:40;;;;;;;6.43;2.90;;;;;;;;;;483318;28;1056;-71
2023/09/05 00:35:56;;;;;;;5.27;2.87;;;;;;;;;;482694;28;962;-71
2023/09/05 00:36:12;;;;;;;4.45;2.55;;;;;;;;;;481121;28;1114;-71
2023/09/05 00:36:27;;;;;;;3.40;2.50;;;;;;;;;;474841;29;1120;-71
2023/09/05 00:36:42;;;;;;;3.70;2.60;;;;;;;;;;475683;28;1239;-71
2023/09/05 00:37:00;;;;;;;3.40;2.60;;;;;;;;;;475096;29;1098;-70
2023/09/05 00:37:22;;;;;;;3.88;2.80;;;;;;;;;;476734;29;1089;-71
2023/09/05 00:37:37;;;;;;;4.43;2.75;;;;;;;;;;484680;28;1069;-71
2023/09/05 00:37:54;;;;;;;3.87;2.70;;;;;;;;;;485095;28;1112;-71
2023/09/05 00:38:10;;;;;;;4.47;2.65;;;;;;;;;;484950;28;1097;-71
2023/09/05 00:38:25;;;;;;;4.77;2.57;;;;;;;;;;483607;28;1319;-70
2023/09/05 00:38:42;;;;;;;4.93;2.72;;;;;;;;;;486113;28;963;-71
2023/09/05 00:39:02;;;;;;;4.67;2.90;;;;;;;;;;483482;28;1212;-70
2023/09/05 00:39:17;;;;;;;4.78;2.70;;;;;;;;;;482167;28;1352;-70
2023/09/05 00:39:34;;;;;;;4.20;2.60;;;;;;;;;;483305;28;1052;-71
2023/09/05 00:39:49;;;;;;;3.35;2.60;;;;;;;;;;482553;28;1161;-71
2023/09/05 00:40:05;;;;;;;3.55;2.55;;;;;;;;;;482940;28;1022;-71
2023/09/05 00:40:21;;;;;;;4.47;2.45;;;;;;;;;;479842;28;1256;-71
2023/09/05 00:40:36;;;;;;;4.23;2.50;;;;;;;;;;480617;28;1020;-70
2023/09/05 00:40:53;;;;;;;4.07;2.40;;;;;;;;;;480989;28;1215;-71
2023/09/05 00:41:10;;;;;;;4.75;2.53;;;;;;;;;;483498;28;1286;-71
2023/09/05 00:41:25;;;;;;;5.85;2.70;;;;;;;;;;480694;28;1627;-71
2023/09/05 00:41:41;;;;;;;4.67;2.60;;;;;;;;;;480064;28;1055;-71
2023/09/05 00:41:58;;;;;;;4.07;2.60;;;;;;;;;;481028;28;975;-70
2023/09/05 00:42:15;;;;;;;3.47;2.33;;;;;;;;;;479893;28;1345;-71
2023/09/05 00:42:30;;;;;;;2.72;2.20;;;;;;;;;;480750;28;1066;-71
2023/09/05 00:42:47;;;;;;;4.13;2.27;;;;;;;;;;480901;28;1095;-71
2023/09/05 00:43:03;;;;;;;4.28;2.28;;;;;;;;;;480497;28;1083;-71
2023/09/05 00:43:20;;;;;;;3.53;2.28;;;;;;;;;;480905;28;1245;-71
2023/09/05 00:43:36;;;;;;;3.80;2.22;;;;;;;;;;481743;28;1337;-72
2023/09/05 00:43:52;;;;;;;4.30;2.37;;;;;;;;;;482550;28;1224;-71
2023/09/05 00:44:09;;;;;;;4.60;2.30;;;;;;;;;;483515;28;1039;-71
2023/09/05 00:44:25;;;;;;;3.60;2.25;;;;;;;;;;483740;28;1137;-70
2023/09/05 00:44:41;;;;;;;2.72;2.10;;;;;;;;;;482908;28;951;-71
2023/09/05 00:44:57;;;;;;;3.35;2.10;;;;;;;;;;481263;28;1312;-70
2023/09/05 00:45:12;;;;;;;4.63;2.30;;;;;;;;;;478691;28;1201;-71
2023/09/05 00:45:29;;;;;;;5.03;2.22;;;;;;;;;;478887;28;979;-71
2023/09/05 00:45:49;;;;;;;4.18;2.25;;;;;;;;;;479413;28;1115;-70
2023/09/05 00:46:06;;;;;;;3.92;2.38;;;;;;;;;;479318;28;1154;-71
2023/09/05 00:46:22;;;;;;;5.82;2.40;;;;;;;;;;479885;28;1142;-71
2023/09/05 00:46:37;;;;;;;5.40;2.30;;;;;;;;;;480839;28;1104;-70
2023/09/05 00:46:58;;;;;;;4.65;2.30;;;;;;;;;;483728;28;1106;-71
2023/09/05 00:47:14;;;;;;;4.85;2.28;;;;;;;;;;478517;28;1170;-71
2023/09/05 00:47:30;;;;;;;3.90;2.40;;;;;;;;;;476551;29;963;-71
2023/09/05 00:47:47;;;;;;;4.40;2.50;;;;;;;;;;483351;29;947;-70
2023/09/05 00:48:07;;;;;;;5.00;2.47;;;;;;;;;;483485;29;1138;-71
2023/09/05 00:48:27;;;;;;;4.53;2.38;;;;;;;;;;485932;28;1230;-71
2023/09/05 00:48:43;;;;;;;3.63;2.25;;;;;;;;;;488122;28;1108;-71
2023/09/05 00:49:02;;;;;;;3.90;2.40;;;;;;;;;;486955;28;1167;-70
2023/09/05 00:49:22;;;;;;;5.40;2.50;;;;;;;;;;484108;28;1062;-71
2023/09/05 00:49:47;;;;;;;3.97;2.60;;;;;;;;;;487567;28;1104;-71
2023/09/05 00:50:05;;;;;;;3.03;2.70;;;;;;;;;;486580;28;1002;-71
2023/09/05 00:50:21;;;;;;;3.60;2.60;;;;;;;;;;481945;28;1107;-71
2023/09/05 00:50:40;;;;;;;3.40;2.40;;;;;;;;;;481075;29;1145;-71
2023/09/05 00:50:56;;;;;;;4.03;2.65;;;;;;;;;;482341;29;1297;-71
2023/09/05 00:51:12;;;;;;;4.95;2.70;;;;;;;;;;488652;28;2022;-71
2023/09/05 00:51:30;;;;;;;4.20;2.60;;;;;;;;;;489716;28;1030;-71
2023/09/05 00:51:50;;;;;;;4.55;2.67;;;;;;;;;;491176;28;1048;-71
2023/09/05 00:52:08;;;;;;;4.25;2.60;;;;;;;;;;491410;28;1121;-71
2023/09/05 00:52:25;;;;;;;4.22;2.50;;;;;;;;;;489761;28;1166;-71
2023/09/05 00:52:40;;;;;;;3.30;2.47;;;;;;;;;;490725;28;1062;-71
2023/09/05 00:52:56;;;;;;;3.03;2.55;;;;;;;;;;486124;28;1183;-71
2023/09/05 00:53:11;;;;;;;3.27;2.60;;;;;;;;;;488850;28;1245;-71
2023/09/05 00:53:27;;;;;;;4.30;2.70;;;;;;;;;;484282;28;1154;-71
2023/09/05 00:53:42;;;;;;;4.97;2.67;;;;;;;;;;487466;28;1048;-71
2023/09/05 00:53:59;;;;;;;4.57;2.60;;;;;;;;;;486198;28;1311;-71
2023/09/05 00:54:14;;;;;;;4.15;2.58;;;;;;;;;;487302;28;1073;-71
2023/09/05 00:54:30;;;;;;;4.18;2.45;;;;;;;;;;486497;28;1145;-71
2023/09/05 00:54:45;;;;;;;4.33;2.37;;;;;;;;;;484309;28;968;-71
2023/09/05 00:55:01;;;;;;;4.28;2.33;;;;;;;;;;478352;29;1205;-71
2023/09/05 00:55:19;;;;;;;4.30;2.50;;;;;;;;;;479688;29;967;-71
2023/09/05 00:55:34;;;;;;;4.07;2.50;;;;;;;;;;479816;28;1222;-71
2023/09/05 00:55:50;;;;;;;3.60;2.33;;;;;;;;;;484657;28;1394;-71
2023/09/05 00:56:05;;;;;;;3.90;2.40;;;;;;;;;;486194;28;1149;-71
2023/09/05 00:56:21;;;;;;;4.90;2.55;;;;;;;;;;488104;28;1162;-71
2023/09/05 00:56:37;;;;;;;3.87;2.57;;;;;;;;;;485266;28;1034;-71
2023/09/05 00:56:53;;;;;;;3.47;2.40;;;;;;;;;;488765;28;1019;-71
2023/09/05 00:57:11;;;;;;;4.47;2.42;;;;;;;;;;490305;28;1137;-71
2023/09/05 00:57:27;;;;;;;4.05;2.40;;;;;;;;;;488256;28;1037;-71
2023/09/05 00:57:43;;;;;;;4.50;2.43;;;;;;;;;;485156;28;1062;-71
2023/09/05 00:58:00;;;;;;;4.00;2.50;;;;;;;;;;482645;29;975;-70
2023/09/05 00:58:16;;;;;;;4.15;2.40;;;;;;;;;;489811;28;1304;-71
2023/09/05 00:58:31;;;;;;;4.55;2.40;;;;;;;;;;487415;28;1192;-71
2023/09/05 00:58:46;;;;;;;4.27;2.43;;;;;;;;;;487264;28;1430;-71
2023/09/05 00:59:04;;;;;;;4.38;2.45;;;;;;;;;;485937;28;1085;-71
2023/09/05 00:59:20;;;;;;;4.05;2.50;;;;;;;;;;486669;28;999;-71
2023/09/05 00:59:36;;;;;;;3.90;2.50;;;;;;;;;;484375;28;1150;-71
2023/09/05 00:59:51;;;;;;;4.53;2.60;;;;;;;;;;486205;28;1135;-71
2023/09/05 01:00:10;;;;;;;4.95;2.50;;;;;;;;;;490715;28;1089;-71
2023/09/05 01:00:28;;;;;;;5.57;2.63;;;;;;;;;;483511;28;1158;-71
2023/09/05 01:00:44;;;;;;;4.28;2.58;;;;;;;;;;478990;28;1055;-71
2023/09/05 01:00:59;;;;;;;4.17;2.57;;;;;;;;;;478405;28;1063;-71
2023/09/05 01:01:15;;;;;;;4.13;2.58;;;;;;;;;;476216;28;1171;-71
2023/09/05 01:01:30;;;;;;;3.80;2.50;;;;;;;;;;475914;28;1180;-71
2023/09/05 01:01:47;;;;;;;4.10;2.65;;;;;;;;;;475860;29;1114;-71
2023/09/05 01:02:02;;;;;;;3.50;2.60;;;;;;;;;;476431;28;1050;-70
2023/09/05 01:02:17;;;;;;;3.27;2.40;;;;;;;;;;484123;28;1440;-70
2023/09/05 01:02:59;;;;;;;5.43;2.50;;;;;;;;;;517524;28;1418;-70
2023/09/05 01:03:14;;;;;;;3.43;2.30;;;;;;;;;;517748;28;1456;-70
2023/09/05 01:03:30;;;;;;;4.13;2.43;;;;;;;;;;511749;28;1127;-71
2023/09/05 01:03:45;;;;;;;5.03;2.58;;;;;;;;;;507658;29;1317;-71
2023/09/05 01:04:01;;;;;;;4.50;2.50;;;;;;;;;;507520;29;1169;-71
2023/09/05 01:04:17;;;;;;;4.05;2.40;;;;;;;;;;509431;29;809;-71
2023/09/05 01:04:33;;;;;;;3.67;2.25;;;;;;;;;;509693;28;1152;-71
2023/09/05 01:04:48;;;;;;;3.92;2.30;;;;;;;;;;509551;29;877;-71
2023/09/05 01:05:06;;;;;;;3.92;2.53;;;;;;;;;;509831;29;1209;-72
2023/09/05 01:05:25;;;;;;;3.78;2.50;;;;;;;;;;511579;29;797;-71
2023/09/05 01:05:45;;;;;;;3.75;2.60;;;;;;;;;;511556;29;1147;-71
2023/09/05 01:06:06;;;;;;;4.47;2.60;;;;;;;;;;511490;29;1046;-71
2023/09/05 01:06:33;;;;;;;4.57;2.60;;;;;;;;;;511514;29;1237;-70
2023/09/05 01:06:54;;;;;;;4.20;2.50;;;;;;;;;;511399;29;1091;-71
2023/09/05 01:07:37;;;;;;;4.03;2.60;;;;;;;;;;511575;28;904;-71
2023/09/05 01:07:59;;;;;;;4.40;2.50;;;;;;;;;;510393;28;1247;-71
2023/09/05 01:08:26;;;;;;;3.97;2.50;;;;;;;;;;509514;28;1113;-71
2023/09/05 01:08:51;;;;;;;3.60;2.40;;;;;;;;;;510763;28;1242;-71
2023/09/05 01:09:29;;;;;;;3.58;2.50;;;;;;;;;;509133;29;1274;-71
2023/09/05 01:09:52;;;;;;;3.97;2.50;;;;;;;;;;509238;29;1291;-71
2023/09/05 01:10:12;;;;;;;4.38;2.40;;;;;;;;;;507402;29;1273;-71
2023/09/05 01:10:45;;;;;;;4.40;2.38;;;;;;;;;;508123;29;1288;-71
2023/09/05 01:11:08;;;;;;;3.50;2.40;;;;;;;;;;508773;29;1439;-71
2023/09/05 01:11:24;;;;;;;4.00;2.33;;;;;;;;;;509128;29;2027;-71
2023/09/05 01:11:40;;;;;;;3.28;2.40;;;;;;;;;;509388;29;1128;-71
2023/09/05 01:11:56;;;;;;;3.10;2.42;;;;;;;;;;507386;28;1252;-71
2023/09/05 01:12:12;;;;;;;3.40;2.45;;;;;;;;;;507170;29;1291;-71
2023/09/05 01:12:27;;;;;;;4.22;2.40;;;;;;;;;;509037;29;1399;-71
2023/09/05 01:12:42;;;;;;;4.10;2.57;;;;;;;;;;509276;29;1203;-71
2023/09/05 01:12:58;;;;;;;3.57;2.50;;;;;;;;;;509225;29;1218;-71
2023/09/05 01:13:22;;;;;;;4.43;2.40;;;;;;;;;;509174;29;1376;-73
2023/09/05 01:13:38;;;;;;;4.53;2.50;;;;;;;;;;508108;28;1162;-74
2023/09/05 01:13:53;;;;;;;4.53;2.60;;;;;;;;;;508280;28;1201;-74
2023/09/05 01:14:08;;;;;;;6.07;2.63;;;;;;;;;;507435;29;1147;-74
2023/09/05 01:14:23;;;;;;;4.53;2.47;;;;;;;;;;509841;29;1061;-74
2023/09/05 01:14:39;;;;;;;3.17;2.40;;;;;;;;;;509068;28;1316;-74
2023/09/05 01:14:54;;;;;;;4.55;2.47;;;;;;;;;;506102;29;2147;-74
2023/09/05 01:15:09;;;;;;;5.57;2.60;;;;;;;;;;506762;29;1156;-74
2023/09/05 01:15:24;;;;;;;4.80;2.70;;;;;;;;;;505412;29;1236;-74
2023/09/05 01:15:40;;;;;;;4.00;2.60;;;;;;;;;;505548;28;1139;-74
2023/09/05 01:15:55;;;;;;;3.67;2.38;;;;;;;;;;505543;28;1167;-74
2023/09/05 01:16:10;;;;;;;3.27;2.40;;;;;;;;;;501786;28;1165;-74
2023/09/05 01:16:25;;;;;;;3.10;2.50;;;;;;;;;;502745;29;1203;-74
2023/09/05 01:16:45;;;;;;;4.43;2.50;;;;;;;;;;503198;29;1238;-74
2023/09/05 01:17:05;;;;;;;4.78;2.50;;;;;;;;;;502556;29;978;-74
2023/09/05 01:17:20;;;;;;;3.85;2.33;;;;;;;;;;503026;28;1003;-74
2023/09/05 01:17:36;;;;;;;4.70;2.30;;;;;;;;;;506897;29;1147;-74
2023/09/05 01:17:53;;;;;;;4.30;2.45;;;;;;;;;;507567;29;1246;-74
2023/09/05 01:18:09;;;;;;;3.88;2.50;;;;;;;;;;509599;28;1298;-74
2023/09/05 01:18:24;;;;;;;3.75;2.40;;;;;;;;;;511403;28;1154;-74
2023/09/05 01:18:40;;;;;;;2.97;2.33;;;;;;;;;;509058;29;1487;-74
2023/09/05 01:18:55;;;;;;;3.20;2.42;;;;;;;;;;509365;29;1178;-74
2023/09/05 01:19:15;;;;;;;3.93;2.30;;;;;;;;;;508628;28;1268;-74
2023/09/05 01:19:36;;;;;;;3.78;2.35;;;;;;;;;;508486;29;1203;-74
2023/09/05 01:19:55;;;;;;;4.82;2.50;;;;;;;;;;508863;29;1137;-74
2023/09/05 01:20:11;;;;;;;5.25;2.53;;;;;;;;;;509053;29;1265;-74
2023/09/05 01:20:40;;;;;;;4.90;2.58;;;;;;;;;;509168;28;1170;-74
2023/09/05 01:21:17;;;;;;;5.20;2.90;;;;;;;;;;508886;29;1532;-74
2023/09/05 01:21:40;;;;;;;5.00;2.50;;;;;;;;;;509252;29;1163;-74
2023/09/05 01:21:55;;;;;;;3.65;2.40;;;;;;;;;;509244;29;1179;-74
2023/09/05 01:22:18;;;;;;;3.70;2.60;;;;;;;;;;509146;29;1198;-74
2023/09/05 01:23:02;;;;;;;3.30;2.55;;;;;;;;;;509552;29;1154;-74
2023/09/05 01:23:28;;;;;;;3.65;2.50;;;;;;;;;;509020;29;1313;-74
2023/09/05 01:23:55;;;;;;;4.07;2.50;;;;;;;;;;517640;28;1174;-74
2023/09/05 01:24:16;;;;;;;3.50;2.47;;;;;;;;;;517615;28;1162;-74
2023/09/05 01:24:35;;;;;;;4.13;2.60;;;;;;;;;;518619;28;1101;-74
2023/09/05 01:24:51;;;;;;;5.78;2.70;;;;;;;;;;516516;28;1166;-74
2023/09/05 01:25:08;;;;;;;4.70;2.60;;;;;;;;;;518455;28;1138;-74
2023/09/05 01:25:24;;;;;;;3.75;2.58;;;;;;;;;;517213;28;1177;-74
2023/09/05 01:25:40;;;;;;;4.18;2.60;;;;;;;;;;516774;28;1288;-74
2023/09/05 01:25:56;;;;;;;4.53;2.45;;;;;;;;;;517406;28;1221;-74
2023/09/05 01:26:11;;;;;;;4.25;2.38;;;;;;;;;;515012;28;1159;-74
2023/09/05 01:26:28;;;;;;;3.00;2.40;;;;;;;;;;513692;28;1163;-74
2023/09/05 01:26:43;;;;;;;3.63;2.35;;;;;;;;;;515016;28;1151;-74
2023/09/05 01:26:59;;;;;;;5.65;2.55;;;;;;;;;;515147;28;1267;-74
2023/09/05 01:27:22;;;;;;;5.77;2.43;;;;;;;;;;513184;28;1498;-74
2023/09/05 01:27:37;;;;;;;3.70;2.40;;;;;;;;;;514513;28;1139;-74
2023/09/05 01:27:53;;;;;;;3.40;2.60;;;;;;;;;;515448;28;1163;-74
2023/09/05 01:28:11;;;;;;;3.57;2.67;;;;;;;;;;515844;28;1159;-74
2023/09/05 01:28:28;;;;;;;5.10;2.70;;;;;;;;;;517415;28;1457;-74
2023/09/05 01:28:45;;;;;;;5.60;2.70;;;;;;;;;;517745;28;1119;-74
2023/09/05 01:29:01;;;;;;;4.15;2.53;;;;;;;;;;517673;28;1169;-74
2023/09/05 01:29:25;;;;;;;3.78;2.58;;;;;;;;;;515598;28;1125;-74
2023/09/05 01:29:41;;;;;;;5.45;2.85;;;;;;;;;;514226;28;1091;-74
2023/09/05 01:29:56;;;;;;;4.80;2.60;;;;;;;;;;513504;28;1421;-74
2023/09/05 01:30:12;;;;;;;3.15;2.50;;;;;;;;;;514188;28;1172;-74
2023/09/05 01:30:28;;;;;;;3.40;2.50;;;;;;;;;;516820;28;1138;-74
2023/09/05 01:30:43;;;;;;;5.30;2.47;;;;;;;;;;518948;28;1138;-74
2023/09/05 01:30:59;;;;;;;6.30;2.60;;;;;;;;;;517677;28;1343;-74
2023/09/05 01:31:15;;;;;;;4.67;2.70;;;;;;;;;;517541;28;1922;-74
2023/09/05 01:31:31;;;;;;;4.40;2.60;;;;;;;;;;515513;28;1284;-74
2023/09/05 01:31:48;;;;;;;3.92;2.47;;;;;;;;;;515464;28;1311;-74
2023/09/05 01:32:04;;;;;;;5.10;2.55;;;;;;;;;;517029;28;1230;-74
2023/09/05 01:32:20;;;;;;;7.63;2.55;;;;;;;;;;513295;28;1275;-74
2023/09/05 01:32:37;;;;;;;6.97;2.53;;;;;;;;;;513324;28;2079;-74
2023/09/05 01:32:52;;;;;;;4.20;2.65;;;;;;;;;;512740;28;1472;-74
2023/09/05 01:33:08;;;;;;;5.20;2.60;;;;;;;;;;512003;28;1726;-74
2023/09/05 01:33:23;;;;;;;6.20;2.60;;;;;;;;;;510540;29;1337;-74
2023/09/05 01:33:39;;;;;;;4.80;2.70;;;;;;;;;;512251;28;1179;-74
2023/09/05 01:33:55;;;;;;;4.13;2.65;;;;;;;;;;513742;28;1151;-74
2023/09/05 01:34:10;;;;;;;4.70;2.53;;;;;;;;;;511757;28;1431;-74
2023/09/05 01:34:25;;;;;;;5.15;2.63;;;;;;;;;;513301;28;1192;-74
2023/09/05 01:34:41;;;;;;;4.83;2.53;;;;;;;;;;514842;28;1089;-74
2023/09/05 01:34:56;;;;;;;3.83;2.35;;;;;;;;;;513858;28;1154;-74
2023/09/05 01:35:11;;;;;;;3.93;2.40;;;;;;;;;;513231;28;1286;-74
2023/09/05 01:35:27;;;;;;;5.03;2.57;;;;;;;;;;515411;28;1218;-73
2023/09/05 01:35:42;;;;;;;4.63;2.47;;;;;;;;;;515194;28;1392;-73
2023/09/05 01:35:57;;;;;;;3.53;2.35;;;;;;;;;;515582;28;1251;-74
2023/09/05 01:36:14;;;;;;;3.77;2.37;;;;;;;;;;514656;28;1321;-74
2023/09/05 01:36:30;;;;;;;4.95;2.50;;;;;;;;;;515483;28;1157;-74
2023/09/05 01:36:45;;;;;;;4.57;2.47;;;;;;;;;;516012;28;1513;-75
2023/09/05 01:37:00;;;;;;;4.32;2.40;;;;;;;;;;517659;28;1202;-74
2023/09/05 01:37:16;;;;;;;5.37;2.50;;;;;;;;;;517744;28;1181;-74
2023/09/05 01:37:31;;;;;;;4.57;2.50;;;;;;;;;;517382;28;1745;-74
2023/09/05 01:37:47;;;;;;;4.50;2.67;;;;;;;;;;517756;28;1757;-74
2023/09/05 01:38:02;;;;;;;4.50;2.80;;;;;;;;;;517720;28;1446;-73
2023/09/05 01:38:17;;;;;;;4.95;2.70;;;;;;;;;;518642;28;1326;-74
2023/09/05 01:38:33;;;;;;;4.23;2.60;;;;;;;;;;519858;28;1170;-74
2023/09/05 01:38:49;;;;;;;3.25;2.55;;;;;;;;;;519684;28;1199;-74
2023/09/05 01:39:04;;;;;;;4.00;2.50;;;;;;;;;;517625;28;1385;-74
2023/09/05 01:39:19;;;;;;;4.15;2.63;;;;;;;;;;517607;28;1204;-74
2023/09/05 01:39:35;;;;;;;3.73;2.60;;;;;;;;;;519201;28;1380;-74
2023/09/05 01:39:50;;;;;;;5.03;2.50;;;;;;;;;;518577;28;1310;-74
2023/09/05 01:40:07;;;;;;;5.83;2.50;;;;;;;;;;515659;28;1179;-74
2023/09/05 01:40:22;;;;;;;6.78;2.50;;;;;;;;;;515485;28;1065;-74
2023/09/05 01:40:37;;;;;;;7.20;2.55;;;;;;;;;;515663;28;1020;-74
2023/09/05 01:40:52;;;;;;;5.53;2.53;;;;;;;;;;516050;28;1254;-74
2023/09/05 01:41:08;;;;;;;4.73;2.53;;;;;;;;;;515645;28;1192;-74
2023/09/05 01:41:23;;;;;;;4.18;2.60;;;;;;;;;;517413;28;1233;-74
2023/09/05 01:41:38;;;;;;;4.03;2.63;;;;;;;;;;517630;28;1143;-74
2023/09/05 01:41:55;;;;;;;4.07;2.67;;;;;;;;;;518847;28;1241;-74
2023/09/05 01:42:11;;;;;;;4.35;2.60;;;;;;;;;;518744;28;1143;-73
2023/09/05 01:42:26;;;;;;;3.37;2.30;;;;;;;;;;517518;28;1246;-74
2023/09/05 01:42:41;;;;;;;3.15;2.30;;;;;;;;;;517748;28;1126;-74
2023/09/05 01:42:56;;;;;;;3.30;2.40;;;;;;;;;;517161;28;1453;-74
2023/09/05 01:43:12;;;;;;;3.97;2.50;;;;;;;;;;517101;28;1577;-74
2023/09/05 01:43:27;;;;;;;4.23;2.50;;;;;;;;;;517425;28;1230;-74
2023/09/05 01:43:42;;;;;;;3.60;2.45;;;;;;;;;;517680;28;1831;-74
2023/09/05 01:43:57;;;;;;;4.17;2.53;;;;;;;;;;515737;28;2014;-74
2023/09/05 01:44:13;;;;;;;5.17;2.60;;;;;;;;;;517240;28;1407;-74
2023/09/05 01:44:28;;;;;;;5.65;2.67;;;;;;;;;;517580;28;1154;-74
2023/09/05 01:44:43;;;;;;;4.83;2.67;;;;;;;;;;517605;28;1123;-74
2023/09/05 01:44:59;;;;;;;4.00;2.60;;;;;;;;;;517430;28;1336;-74
2023/09/05 01:45:14;;;;;;;4.93;2.60;;;;;;;;;;517586;28;1092;-74
2023/09/05 01:45:29;;;;;;;4.65;2.63;;;;;;;;;;517327;28;1275;-74
2023/09/05 01:45:45;;;;;;;3.40;2.40;;;;;;;;;;517040;28;1252;-74